createdAt,value
2022-11-12T00:01:00.253Z,78.68
2022-11-12T00:03:46.689Z,74.10
2022-11-12T00:06:37.962Z,71.85
2022-11-12T00:12:28.801Z,63.35
2022-11-12T00:15:19.539Z,71.20
2022-11-12T00:18:11.412Z,68.80
2022-11-12T00:21:01.105Z,63.75
2022-11-12T00:23:51.075Z,68.90
2022-11-12T00:26:38.283Z,68.05
2022-11-12T00:29:24.685Z,76.28
2022-11-12T00:32:13.637Z,66.05
2022-11-12T00:35:03.219Z,71.03
2022-11-12T00:38:05.062Z,71.18
2022-11-12T00:40:54.176Z,65.20
2022-11-12T00:43:43.047Z,66.00
2022-11-12T00:46:37.185Z,69.50
2022-11-12T00:49:30.503Z,70.50
2022-11-12T00:52:20.182Z,73.18
2022-11-12T00:55:10.563Z,75.13
2022-11-12T00:58:01.894Z,72.03
2022-11-12T01:00:49.813Z,69.78
2022-11-12T01:03:42.424Z,68.22
2022-11-12T01:06:28.930Z,70.80
2022-11-12T01:09:18.493Z,72.53
2022-11-12T01:12:11.457Z,63.83
2022-11-12T01:15:01.027Z,65.35
2022-11-12T01:17:47.186Z,63.60
2022-11-12T01:20:36.885Z,62.05
2022-11-12T01:23:26.036Z,61.25
2022-11-12T01:26:22.369Z,62.55
2022-11-12T01:29:13.259Z,61.47
2022-11-12T01:32:03.307Z,66.25
2022-11-12T01:34:53.780Z,63.63
2022-11-12T01:37:44.211Z,64.18
2022-11-12T01:40:29.771Z,64.55
2022-11-12T01:43:19.424Z,64.72
2022-11-12T01:46:24.448Z,63.08
2022-11-12T01:49:17.384Z,67.70
2022-11-12T01:52:39.927Z,59.47
2022-11-12T01:55:37.685Z,57.78
2022-11-12T01:58:37.059Z,62.38
2022-11-12T02:01:26.197Z,66.30
2022-11-12T02:04:15.693Z,58.10
2022-11-12T02:07:05.138Z,64.68
2022-11-12T02:09:55.245Z,60.75
2022-11-12T02:13:06.299Z,60.53
2022-11-12T02:15:58.223Z,64.03
2022-11-12T02:18:48.322Z,66.78
2022-11-12T02:21:35.665Z,61.88
2022-11-12T02:24:25.308Z,65.22
2022-11-12T02:27:17.560Z,58.47
2022-11-12T02:30:05.398Z,60.90
2022-11-12T02:32:57.286Z,63.25
2022-11-12T02:35:47.409Z,62.40
2022-11-12T02:38:34.784Z,61.05
2022-11-12T02:41:25.789Z,58.22
2022-11-12T02:44:16.035Z,56.15
2022-11-12T02:47:06.065Z,54.78
2022-11-12T02:49:56.351Z,52.78
2022-11-12T02:52:48.431Z,55.70
2022-11-12T02:55:38.330Z,52.35
2022-11-12T02:58:26.662Z,48.15
2022-11-12T03:01:15.481Z,52.90
2022-11-12T03:04:06.351Z,52.63
2022-11-12T03:06:53.868Z,52.10
2022-11-12T03:09:46.119Z,55.63
2022-11-12T03:12:35.563Z,50.38
2022-11-12T03:15:24.236Z,53.40
2022-11-12T03:21:16.161Z,51.63
2022-11-12T03:24:03.363Z,52.33
2022-11-12T03:26:53.894Z,51.88
2022-11-12T03:29:45.392Z,50.00
2022-11-12T03:32:37.529Z,49.78
2022-11-12T03:35:27.961Z,52.90
2022-11-12T03:38:14.840Z,51.45
2022-11-12T03:41:05.482Z,53.83
2022-11-12T03:43:53.153Z,54.15
2022-11-12T03:46:44.147Z,48.22
2022-11-12T03:49:34.206Z,48.55
2022-11-12T03:52:20.909Z,48.25
2022-11-12T03:55:11.525Z,48.58
2022-11-12T03:58:03.656Z,47.22
2022-11-12T04:00:50.894Z,43.80
2022-11-12T04:03:41.371Z,46.47
2022-11-12T04:06:49.416Z,47.25
2022-11-12T04:09:35.877Z,45.88
2022-11-12T04:12:42.300Z,45.10
2022-11-12T04:15:32.240Z,45.05
2022-11-12T04:18:38.298Z,47.55
2022-11-12T04:21:53.479Z,44.75
2022-11-12T04:27:51.337Z,43.50
2022-11-12T04:30:41.196Z,43.97
2022-11-12T04:33:30.439Z,44.40
2022-11-12T04:36:19.426Z,45.50
2022-11-12T04:39:08.286Z,44.75
2022-11-12T04:42:15.570Z,44.67
2022-11-12T04:45:08.352Z,40.92
2022-11-12T04:48:01.654Z,46.30
2022-11-12T04:51:29.345Z,42.97
2022-11-12T04:54:18.487Z,54.13
2022-11-12T04:57:07.322Z,52.75
2022-11-12T04:59:57.838Z,58.45
2022-11-12T05:02:47.633Z,82.20
2022-11-12T05:05:34.934Z,85.72
2022-11-12T05:08:24.703Z,57.45
2022-11-12T05:11:14.453Z,46.65
2022-11-12T05:14:01.579Z,44.13
2022-11-12T05:16:52.520Z,51.75
2022-11-12T05:19:40.385Z,39.55
2022-11-12T05:22:43.152Z,39.95
2022-11-12T05:25:37.988Z,41.30
2022-11-12T05:28:26.875Z,49.00
2022-11-12T05:31:14.940Z,45.42
2022-11-12T05:34:04.364Z,64.07
2022-11-12T05:36:57.193Z,45.92
2022-11-12T05:39:47.107Z,47.17
2022-11-12T05:42:34.264Z,54.20
2022-11-12T05:45:27.261Z,49.42
2022-11-12T05:48:13.826Z,52.45
2022-11-12T05:51:12.916Z,74.72
2022-11-12T05:54:05.850Z,52.58
2022-11-12T05:56:57.436Z,46.72
2022-11-12T05:59:48.021Z,49.38
2022-11-12T06:02:38.853Z,45.42
2022-11-12T06:05:28.766Z,47.22
2022-11-12T06:08:21.649Z,41.70
2022-11-12T06:11:10.594Z,44.53
2022-11-12T06:14:00.837Z,43.28
2022-11-12T06:16:53.232Z,45.20
2022-11-12T06:19:44.375Z,44.45
2022-11-12T06:22:33.628Z,37.70
2022-11-12T06:25:21.275Z,42.60
2022-11-12T06:28:13.336Z,46.67
2022-11-12T06:31:04.655Z,51.63
2022-11-12T06:33:56.010Z,50.70
2022-11-12T06:36:46.520Z,47.20
2022-11-12T06:39:34.456Z,46.08
2022-11-12T06:42:23.206Z,46.70
2022-11-12T06:45:11.512Z,46.88
2022-11-12T06:48:02.038Z,43.28
2022-11-12T06:50:50.174Z,43.90
2022-11-12T06:53:40.648Z,44.60
2022-11-12T06:56:30.867Z,43.38
2022-11-12T06:59:21.631Z,50.10
2022-11-12T07:02:10.785Z,46.00
2022-11-12T07:05:01.799Z,41.95
2022-11-12T07:07:51.611Z,47.50
2022-11-12T07:10:40.499Z,44.63
2022-11-12T07:13:32.520Z,41.30
2022-11-12T07:16:19.376Z,44.40
2022-11-12T07:19:29.585Z,43.65
2022-11-12T07:22:18.493Z,42.72
2022-11-12T07:25:09.486Z,41.85
2022-11-12T07:27:59.797Z,45.10
2022-11-12T07:30:49.417Z,43.53
2022-11-12T07:33:40.782Z,46.47
2022-11-12T07:36:33.952Z,43.22
2022-11-12T07:39:23.362Z,37.58
2022-11-12T07:42:11.845Z,39.33
2022-11-12T07:44:58.138Z,40.60
2022-11-12T07:47:47.177Z,40.53
2022-11-12T07:50:36.415Z,38.97
2022-11-12T07:53:25.409Z,37.97
2022-11-12T07:56:16.492Z,38.28
2022-11-12T07:59:06.943Z,38.72
2022-11-12T08:01:58.124Z,33.65
2022-11-12T08:04:48.615Z,41.40
2022-11-12T08:07:35.258Z,35.63
2022-11-12T08:10:27.860Z,36.90
2022-11-12T08:13:17.571Z,35.58
2022-11-12T08:16:10.373Z,36.20
2022-11-12T08:19:00.396Z,32.13
2022-11-12T08:21:51.031Z,38.35
2022-11-12T08:24:41.943Z,39.55
2022-11-12T08:27:33.900Z,34.33
2022-11-12T08:30:23.496Z,37.30
2022-11-12T08:33:14.212Z,39.60
2022-11-12T08:36:10.083Z,35.58
2022-11-12T08:38:59.768Z,39.08
2022-11-12T08:41:51.494Z,32.65
2022-11-12T08:44:42.163Z,33.35
2022-11-12T08:47:34.047Z,38.60
2022-11-12T08:50:24.122Z,37.50
2022-11-12T08:53:12.927Z,36.13
2022-11-12T08:56:00.602Z,36.78
2022-11-12T08:58:49.123Z,31.02
2022-11-12T09:01:36.308Z,42.35
2022-11-12T09:04:24.516Z,38.05
2022-11-12T09:07:43.362Z,36.55
2022-11-12T09:10:23.967Z,37.60
2022-11-12T09:13:12.180Z,42.65
2022-11-12T09:16:11.964Z,37.30
2022-11-12T09:19:02.919Z,40.95
2022-11-12T09:21:53.714Z,40.22
2022-11-12T09:24:47.078Z,36.63
2022-11-12T09:27:35.678Z,36.55
2022-11-12T09:30:28.004Z,35.17
2022-11-12T09:33:35.980Z,37.97
2022-11-12T09:36:24.628Z,37.08
2022-11-12T09:39:13.569Z,33.45
2022-11-12T09:42:02.626Z,34.20
2022-11-12T09:45:05.838Z,36.42
2022-11-12T09:47:59.376Z,34.80
2022-11-12T09:50:59.398Z,33.20
2022-11-12T09:54:02.347Z,36.28
2022-11-12T09:56:52.992Z,33.95
2022-11-12T09:59:47.746Z,31.80
2022-11-12T10:02:50.914Z,39.95
2022-11-12T10:06:28.284Z,36.13
2022-11-12T10:09:55.056Z,41.58
2022-11-12T10:13:20.266Z,35.42
2022-11-12T10:16:44.825Z,34.60
2022-11-12T10:23:42.333Z,39.35
2022-11-12T10:26:34.839Z,31.58
2022-11-12T10:30:09.394Z,34.03
2022-11-12T10:33:19.515Z,33.05
2022-11-12T10:39:44.927Z,36.85
2022-11-12T10:42:37.280Z,32.92
2022-11-12T10:45:26.861Z,37.90
2022-11-12T10:48:36.102Z,34.35
2022-11-12T10:51:36.734Z,35.17
2022-11-12T10:54:38.750Z,34.28
2022-11-12T10:57:31.093Z,39.15
2022-11-12T11:03:40.558Z,40.47
2022-11-12T11:06:32.822Z,32.67
2022-11-12T11:09:30.079Z,35.17
2022-11-12T11:12:35.137Z,31.85
2022-11-12T11:15:26.423Z,33.05
2022-11-12T11:18:16.955Z,31.88
2022-11-12T11:21:43.490Z,33.13
2022-11-12T11:28:09.882Z,28.13
2022-11-12T11:31:24.494Z,32.45
2022-11-12T11:35:07.340Z,34.53
2022-11-12T11:38:29.642Z,27.55
2022-11-12T11:41:59.777Z,24.00
2022-11-12T11:45:28.438Z,28.15
2022-11-12T11:48:35.056Z,27.58
2022-11-12T11:55:02.903Z,22.77
2022-11-12T11:58:09.875Z,24.05
2022-11-12T12:01:27.335Z,14.60
2022-11-12T12:04:25.599Z,15.35
2022-11-12T12:14:56.354Z,13.90
2022-11-12T12:18:00.320Z,33.30
2022-11-12T12:21:19.160Z,24.38
2022-11-12T12:24:47.888Z,55.28
2022-11-12T12:34:09.105Z,39.72
2022-11-12T12:37:08.496Z,27.15
2022-11-12T12:40:33.988Z,47.97
2022-11-12T12:43:57.419Z,56.28
2022-11-12T12:47:10.622Z,67.32
2022-11-12T12:50:08.218Z,53.50
2022-11-12T12:53:19.192Z,19.45
2022-11-12T12:56:35.899Z,24.23
2022-11-12T12:59:29.537Z,21.67
2022-11-12T13:02:26.731Z,16.27
2022-11-12T13:05:40.126Z,34.53
2022-11-12T13:08:34.832Z,15.13
2022-11-12T13:12:06.604Z,20.77
2022-11-12T13:15:11.075Z,18.15
2022-11-12T13:17:58.748Z,13.32
2022-11-12T13:21:16.795Z,13.73
2022-11-12T13:24:14.227Z,11.90
2022-11-12T13:27:04.175Z,12.43
2022-11-12T13:29:51.732Z,14.10
2022-11-12T13:32:42.027Z,14.70
2022-11-12T13:35:40.366Z,9.82
2022-11-12T13:38:50.008Z,11.77
2022-11-12T13:42:01.271Z,12.02
2022-11-12T13:44:56.101Z,14.75
2022-11-12T13:47:46.609Z,16.48
2022-11-12T13:50:40.684Z,16.15
2022-11-12T13:53:31.610Z,12.63
2022-11-12T13:56:35.487Z,13.20
2022-11-12T13:59:28.819Z,17.48
2022-11-12T14:02:28.749Z,20.77
2022-11-12T14:05:41.031Z,16.25
2022-11-12T14:09:04.670Z,14.63
2022-11-12T14:11:53.801Z,22.38
2022-11-12T14:15:02.947Z,28.60
2022-11-12T14:18:20.677Z,21.15
2022-11-12T14:21:19.509Z,49.42
2022-11-12T14:24:14.837Z,33.78
2022-11-12T14:27:04.922Z,43.28
2022-11-12T14:30:23.902Z,30.88
2022-11-12T14:33:12.214Z,29.83
2022-11-12T14:36:06.121Z,20.80
2022-11-12T14:38:59.452Z,26.85
2022-11-12T14:41:53.757Z,31.00
2022-11-12T14:44:41.652Z,24.17
2022-11-12T14:47:28.918Z,21.25
2022-11-12T14:50:28.358Z,20.17
2022-11-12T14:53:43.324Z,22.77
2022-11-12T14:56:47.904Z,23.65
2022-11-12T14:59:40.971Z,20.45
2022-11-12T15:02:53.770Z,20.52
2022-11-12T15:06:06.628Z,27.98
2022-11-12T15:09:04.646Z,24.27
2022-11-12T15:12:01.159Z,25.65
2022-11-12T15:14:50.903Z,22.00
2022-11-12T15:17:39.598Z,25.05
2022-11-12T15:20:32.122Z,27.92
2022-11-12T15:23:20.302Z,42.90
2022-11-12T15:26:18.010Z,22.55
2022-11-12T15:29:29.692Z,19.67
2022-11-12T15:32:21.881Z,16.08
2022-11-12T15:35:37.245Z,16.73
2022-11-12T15:38:41.206Z,21.57
2022-11-12T15:41:30.762Z,33.13
2022-11-12T15:44:38.206Z,41.78
2022-11-12T15:47:25.270Z,55.10
2022-11-12T15:50:33.883Z,44.55
2022-11-12T15:53:21.098Z,34.35
2022-11-12T15:56:13.553Z,28.77
2022-11-12T15:59:04.073Z,27.40
2022-11-12T16:01:57.268Z,20.83
2022-11-12T16:04:49.315Z,24.73
2022-11-12T16:07:39.258Z,21.20
2022-11-12T16:10:32.629Z,22.05
2022-11-12T16:13:41.774Z,22.70
2022-11-12T16:16:31.652Z,28.83
2022-11-12T16:19:23.614Z,28.02
2022-11-12T16:22:15.671Z,24.58
2022-11-12T16:25:05.028Z,30.08
2022-11-12T16:27:56.212Z,28.92
2022-11-12T16:30:46.914Z,28.00
2022-11-12T16:33:36.909Z,25.42
2022-11-12T16:36:26.991Z,23.63
2022-11-12T16:39:15.687Z,25.27
2022-11-12T16:42:06.265Z,23.35
2022-11-12T16:44:56.151Z,30.77
2022-11-12T16:47:59.739Z,26.38
2022-11-12T16:50:48.318Z,28.13
2022-11-12T16:53:36.465Z,31.70
2022-11-12T16:56:27.595Z,25.85
2022-11-12T16:59:14.695Z,30.15
2022-11-12T17:02:02.840Z,22.42
2022-11-12T17:04:55.494Z,27.55
2022-11-12T17:07:46.389Z,30.10
2022-11-12T17:10:34.965Z,28.70
2022-11-12T17:13:25.504Z,24.10
2022-11-12T17:16:12.803Z,30.17
2022-11-12T17:19:08.110Z,28.27
2022-11-12T17:21:59.572Z,32.35
2022-11-12T17:24:49.277Z,29.15
2022-11-12T17:27:35.965Z,30.63
2022-11-12T17:30:26.608Z,32.42
2022-11-12T17:33:13.797Z,28.38
2022-11-12T17:36:05.464Z,32.25
2022-11-12T17:38:55.140Z,28.92
2022-11-12T17:41:41.949Z,30.58
2022-11-12T17:44:32.650Z,29.95
2022-11-12T17:47:24.429Z,33.92
2022-11-12T17:50:13.445Z,37.25
2022-11-12T17:53:04.362Z,31.52
2022-11-12T17:55:58.681Z,37.22
2022-11-12T17:58:49.607Z,36.28
2022-11-12T18:01:41.092Z,39.42
2022-11-12T18:04:33.784Z,39.17
2022-11-12T18:07:20.877Z,39.55
2022-11-12T18:10:09.273Z,33.33
2022-11-12T18:13:00.751Z,42.55
2022-11-12T18:15:51.987Z,44.58
2022-11-12T18:18:42.699Z,32.10
2022-11-12T18:21:31.358Z,38.95
2022-11-12T18:24:20.551Z,38.28
2022-11-12T18:27:09.887Z,34.60
2022-11-12T18:29:59.639Z,30.60
2022-11-12T18:32:52.083Z,33.22
2022-11-12T18:35:40.360Z,34.80
2022-11-12T18:38:32.407Z,35.75
2022-11-12T18:41:33.281Z,35.97
2022-11-12T18:44:26.172Z,36.85
2022-11-12T18:47:17.473Z,35.50
2022-11-12T18:53:09.207Z,30.85
2022-11-12T18:56:04.349Z,35.55
2022-11-12T18:58:53.431Z,25.85
2022-11-12T19:01:42.580Z,30.33
2022-11-12T19:04:32.288Z,29.23
2022-11-12T19:07:21.013Z,30.52
2022-11-12T19:10:15.094Z,36.38
2022-11-12T19:13:06.467Z,34.60
2022-11-12T19:15:53.087Z,30.48
2022-11-12T19:18:45.973Z,25.27
2022-11-12T19:21:34.720Z,27.48
2022-11-12T19:24:25.647Z,33.08
2022-11-12T19:27:15.198Z,30.42
2022-11-12T19:30:03.670Z,29.75
2022-11-12T19:32:54.246Z,27.90
2022-11-12T19:35:41.471Z,24.85
2022-11-12T19:38:33.243Z,20.23
2022-11-12T19:41:22.457Z,18.27
2022-11-12T19:44:09.175Z,21.27
2022-11-12T19:46:58.442Z,17.75
2022-11-12T19:49:48.265Z,17.98
2022-11-12T19:52:36.760Z,16.05
2022-11-12T19:55:33.476Z,15.48
2022-11-12T19:58:26.870Z,13.57
2022-11-12T20:01:20.319Z,17.08
2022-11-12T20:04:08.971Z,17.27
2022-11-12T20:06:58.575Z,14.52
2022-11-12T20:09:46.111Z,17.42
2022-11-12T20:12:36.203Z,15.05
2022-11-12T20:15:28.693Z,18.55
2022-11-12T20:18:20.816Z,18.42
2022-11-12T20:21:11.571Z,19.73
2022-11-12T20:24:01.477Z,16.58
2022-11-12T20:26:51.878Z,14.75
2022-11-12T20:29:49.269Z,17.63
2022-11-12T20:32:38.512Z,14.95
2022-11-12T20:35:26.412Z,15.07
2022-11-12T20:38:15.521Z,21.13
2022-11-12T20:41:05.377Z,24.08
2022-11-12T20:44:00.423Z,18.95
2022-11-12T20:46:50.628Z,17.75
2022-11-12T20:49:39.550Z,18.20
2022-11-12T20:52:29.766Z,20.55
2022-11-12T20:55:21.018Z,19.10
2022-11-12T20:58:11.389Z,15.82
2022-11-12T21:01:03.169Z,17.27
2022-11-12T21:03:57.600Z,18.85
2022-11-12T21:06:45.592Z,18.15
2022-11-12T21:09:34.847Z,16.45
2022-11-12T21:12:24.752Z,18.70
2022-11-12T21:15:14.533Z,16.27
2022-11-12T21:18:06.114Z,15.30
2022-11-12T21:21:01.837Z,19.00
2022-11-12T21:23:53.472Z,16.55
2022-11-12T21:26:42.514Z,16.67
2022-11-12T21:29:33.846Z,19.98
2022-11-12T21:32:21.420Z,18.02
2022-11-12T21:35:13.243Z,19.35
2022-11-12T21:38:02.815Z,15.10
2022-11-12T21:40:50.024Z,14.70
2022-11-12T21:43:43.182Z,19.20
2022-11-12T21:46:34.893Z,20.67
2022-11-12T21:49:22.643Z,25.77
2022-11-12T21:52:12.023Z,21.75
2022-11-12T21:58:07.811Z,22.15
2022-11-12T22:01:09.550Z,18.45
2022-11-12T22:04:01.209Z,15.35
2022-11-12T22:06:50.392Z,22.15
2022-11-12T22:09:43.027Z,16.20
2022-11-12T22:12:34.949Z,18.92
2022-11-12T22:15:24.986Z,21.55
2022-11-12T22:18:21.192Z,15.55
2022-11-12T22:21:25.501Z,17.70
2022-11-12T22:24:15.860Z,18.05
2022-11-12T22:27:08.288Z,16.48
2022-11-12T22:29:55.044Z,16.10
2022-11-12T22:32:45.141Z,18.60
2022-11-12T22:35:36.336Z,20.17
2022-11-12T22:41:31.449Z,26.38
2022-11-12T22:44:22.300Z,22.65
2022-11-12T22:47:11.863Z,26.05
2022-11-12T22:49:58.387Z,25.88
2022-11-12T22:52:50.272Z,16.33
2022-11-12T22:55:40.120Z,17.60
2022-11-12T22:58:31.485Z,19.92
2022-11-12T23:01:30.205Z,27.70
2022-11-12T23:04:21.640Z,23.77
2022-11-12T23:07:10.927Z,17.27
2022-11-12T23:09:59.754Z,14.02
2022-11-12T23:12:48.533Z,14.10
2022-11-12T23:15:37.488Z,17.83
2022-11-12T23:18:30.153Z,22.45
2022-11-12T23:21:32.644Z,13.32
2022-11-12T23:24:22.711Z,15.15
2022-11-12T23:27:13.970Z,15.68
2022-11-12T23:30:07.040Z,13.52
2022-11-12T23:33:00.444Z,17.88
2022-11-12T23:35:51.061Z,14.70
2022-11-12T23:38:43.366Z,15.43
2022-11-12T23:41:32.303Z,15.63
2022-11-12T23:44:23.045Z,16.50
2022-11-12T23:47:11.432Z,13.18
2022-11-12T23:49:59.491Z,13.13
2022-11-12T23:52:46.247Z,14.95
2022-11-12T23:58:39.457Z,14.27
